createdAt,value
2022-08-08T00:00:39.893Z,14.80
2022-08-08T00:02:43.692Z,14.80
2022-08-08T00:06:03.142Z,14.60
2022-08-08T00:08:53.429Z,14.80
2022-08-08T00:11:46.601Z,14.60
2022-08-08T00:15:23.905Z,14.50
2022-08-08T00:18:30.431Z,14.70
2022-08-08T00:21:24.643Z,14.60
2022-08-08T00:24:35.800Z,14.40
2022-08-08T00:27:22.062Z,14.50
2022-08-08T00:30:15.800Z,14.40
2022-08-08T00:33:11.514Z,14.40
2022-08-08T00:36:09.788Z,14.50
2022-08-08T00:39:36.245Z,14.50
2022-08-08T00:42:33.081Z,14.50
2022-08-08T00:45:48.164Z,14.20
2022-08-08T00:49:22.540Z,14.20
2022-08-08T00:52:43.500Z,14.20
2022-08-08T00:56:03.217Z,14.10
2022-08-08T00:59:18.735Z,14.00
2022-08-08T01:04:01.190Z,14.10
2022-08-08T01:06:05.001Z,14.00
2022-08-08T01:09:36.337Z,13.80
2022-08-08T01:12:52.202Z,13.90
2022-08-08T01:16:02.566Z,13.90
2022-08-08T01:19:52.223Z,13.90
2022-08-08T01:23:01.936Z,13.90
2022-08-08T01:26:16.941Z,13.70
2022-08-08T01:29:58.929Z,13.80
2022-08-08T01:33:28.092Z,13.70
2022-08-08T01:36:58.897Z,13.60
2022-08-08T01:40:05.701Z,13.60
2022-08-08T01:43:25.243Z,13.50
2022-08-08T01:46:52.282Z,13.60
2022-08-08T01:50:08.881Z,13.50
2022-08-08T01:55:16.433Z,13.50
2022-08-08T01:56:31.007Z,13.60
2022-08-08T02:00:01.356Z,13.40
2022-08-08T02:03:07.381Z,13.50
2022-08-08T02:06:31.888Z,13.50
2022-08-08T02:10:03.759Z,13.50
2022-08-08T02:13:01.612Z,13.40
2022-08-08T02:16:21.069Z,13.40
2022-08-08T02:19:57.542Z,13.40
2022-08-08T02:22:56.204Z,13.40
2022-08-08T02:26:01.713Z,13.40
2022-08-08T02:29:41.684Z,13.20
2022-08-08T02:32:56.933Z,13.40
2022-08-08T02:36:04.548Z,13.40
2022-08-08T02:39:42.185Z,13.20
2022-08-08T02:44:34.986Z,13.30
2022-08-08T02:46:50.474Z,13.20
2022-08-08T02:49:48.016Z,13.20
2022-08-08T02:53:09.297Z,13.00
2022-08-08T02:56:29.270Z,13.00
2022-08-08T03:00:01.754Z,13.20
2022-08-08T03:03:16.573Z,13.10
2022-08-08T03:06:58.807Z,13.10
2022-08-08T03:09:59.584Z,13.10
2022-08-08T03:13:01.480Z,13.00
2022-08-08T03:16:35.469Z,13.10
2022-08-08T03:19:50.859Z,12.90
2022-08-08T03:22:56.455Z,12.90
2022-08-08T03:25:50.264Z,12.90
2022-08-08T03:28:47.369Z,12.80
2022-08-08T03:32:06.412Z,12.70
2022-08-08T03:34:54.696Z,12.80
2022-08-08T03:38:00.009Z,12.70
2022-08-08T03:40:51.996Z,12.70
2022-08-08T03:43:41.252Z,12.60
2022-08-08T03:46:32.537Z,12.70
2022-08-08T03:49:59.048Z,12.50
2022-08-08T03:52:29.429Z,12.60
2022-08-08T03:55:55.191Z,12.60
2022-08-08T03:58:33.743Z,12.70
2022-08-08T04:02:12.674Z,12.60
2022-08-08T04:04:43.816Z,12.50
2022-08-08T04:07:40.021Z,12.70
2022-08-08T04:10:31.935Z,12.50
2022-08-08T04:13:23.649Z,12.60
2022-08-08T04:16:16.053Z,12.60
2022-08-08T04:19:23.682Z,12.70
2022-08-08T04:22:14.023Z,12.70
2022-08-08T04:25:02.738Z,12.60
2022-08-08T04:28:02.179Z,12.60
2022-08-08T04:30:57.598Z,12.70
2022-08-08T04:33:43.901Z,12.60
2022-08-08T04:36:31.129Z,12.70
2022-08-08T04:40:03.439Z,12.80
2022-08-08T04:42:26.012Z,12.80
2022-08-08T04:45:11.860Z,12.70
2022-08-08T04:48:00.785Z,12.80
2022-08-08T04:50:50.297Z,12.80
2022-08-08T04:54:36.480Z,12.80
2022-08-08T04:56:46.143Z,12.90
2022-08-08T04:59:31.922Z,12.90
2022-08-08T05:02:30.828Z,12.80
2022-08-08T05:05:20.135Z,13.00
2022-08-08T05:08:12.809Z,13.00
2022-08-08T05:11:00.576Z,13.00
2022-08-08T05:13:57.596Z,13.10
2022-08-08T05:16:54.509Z,13.30
2022-08-08T05:20:11.421Z,13.40
2022-08-08T05:22:58.575Z,13.40
2022-08-08T05:25:49.709Z,13.80
2022-08-08T05:28:56.218Z,14.30
2022-08-08T05:32:03.657Z,14.90
2022-08-08T05:34:53.473Z,15.50
2022-08-08T05:37:54.501Z,16.30
2022-08-08T05:41:05.189Z,16.80
2022-08-08T05:44:04.959Z,17.50
2022-08-08T05:47:02.912Z,18.20
2022-08-08T05:49:53.920Z,18.50
2022-08-08T05:52:41.228Z,18.70
2022-08-08T05:56:11.053Z,18.40
2022-08-08T05:58:57.928Z,18.80
2022-08-08T06:01:58.028Z,19.40
2022-08-08T06:04:55.298Z,19.90
2022-08-08T06:07:47.217Z,20.00
2022-08-08T06:10:35.049Z,20.40
2022-08-08T06:13:35.726Z,20.80
2022-08-08T06:16:27.479Z,21.10
2022-08-08T06:19:19.795Z,21.30
2022-08-08T06:25:18.368Z,21.70
2022-08-08T06:28:47.203Z,21.50
2022-08-08T06:31:52.314Z,21.30
2022-08-08T06:34:40.546Z,21.40
2022-08-08T06:37:36.827Z,21.30
2022-08-08T06:40:32.048Z,21.30
2022-08-08T06:43:28.407Z,20.90
2022-08-08T06:46:23.625Z,20.80
2022-08-08T06:49:15.382Z,20.60
2022-08-08T06:52:01.605Z,20.70
2022-08-08T06:54:49.180Z,20.60
2022-08-08T06:57:54.693Z,20.80
2022-08-08T07:00:46.474Z,20.70
2022-08-08T07:03:51.946Z,20.80
2022-08-08T07:06:57.105Z,20.90
2022-08-08T07:10:12.512Z,20.90
2022-08-08T07:13:08.440Z,21.10
2022-08-08T07:16:10.540Z,21.40
2022-08-08T07:19:25.117Z,21.40
2022-08-08T07:22:18.815Z,21.50
2022-08-08T07:25:14.486Z,21.60
2022-08-08T07:28:19.559Z,21.70
2022-08-08T07:31:08.367Z,21.70
2022-08-08T07:33:59.388Z,21.60
2022-08-08T07:36:50.518Z,21.60
2022-08-08T07:39:56.089Z,21.80
2022-08-08T07:42:48.706Z,21.40
2022-08-08T07:46:05.818Z,21.50
2022-08-08T07:48:42.084Z,21.50
2022-08-08T07:51:45.155Z,21.30
2022-08-08T07:55:03.527Z,21.30
2022-08-08T07:58:04.042Z,21.40
2022-08-08T08:00:53.591Z,21.20
2022-08-08T08:03:55.777Z,21.40
2022-08-08T08:06:47.810Z,21.40
2022-08-08T08:09:39.412Z,21.40
2022-08-08T08:12:35.427Z,21.70
2022-08-08T08:15:31.842Z,21.60
2022-08-08T08:18:31.721Z,21.80
2022-08-08T08:21:20.425Z,21.70
2022-08-08T08:24:30.747Z,21.60
2022-08-08T08:27:22.283Z,21.70
2022-08-08T08:30:16.288Z,21.60
2022-08-08T08:33:03.022Z,21.70
2022-08-08T08:36:18.825Z,21.80
2022-08-08T08:39:00.199Z,21.60
2022-08-08T08:41:53.555Z,21.70
2022-08-08T08:44:40.998Z,21.80
2022-08-08T08:47:43.840Z,22.00
2022-08-08T08:50:34.323Z,21.90
2022-08-08T08:53:55.304Z,21.80
2022-08-08T08:56:37.532Z,21.90
2022-08-08T08:59:59.912Z,22.00
2022-08-08T09:02:42.218Z,22.10
2022-08-08T09:05:54.463Z,22.00
2022-08-08T09:08:39.669Z,21.80
2022-08-08T09:11:33.233Z,21.90
2022-08-08T09:14:23.970Z,21.80
2022-08-08T09:17:18.885Z,21.90
2022-08-08T09:22:01.477Z,21.90
2022-08-08T09:23:17.844Z,22.00
2022-08-08T09:26:42.420Z,22.20
2022-08-08T09:30:09.936Z,22.40
2022-08-08T09:33:54.022Z,22.40
2022-08-08T09:36:04.760Z,22.80
2022-08-08T09:38:52.615Z,22.80
2022-08-08T09:42:14.716Z,23.40
2022-08-08T09:45:08.172Z,23.50
2022-08-08T09:48:17.841Z,23.90
2022-08-08T09:51:11.529Z,23.90
2022-08-08T09:54:08.286Z,24.20
2022-08-08T09:56:56.092Z,24.40
2022-08-08T10:00:02.253Z,24.40
2022-08-08T10:02:57.881Z,25.00
2022-08-08T10:05:46.761Z,25.20
2022-08-08T10:08:34.563Z,25.20
2022-08-08T10:12:26.527Z,25.10
2022-08-08T10:14:44.261Z,25.10
2022-08-08T10:17:56.281Z,25.20
2022-08-08T10:20:51.456Z,25.20
2022-08-08T10:23:58.544Z,25.40
2022-08-08T10:26:57.248Z,25.20
2022-08-08T10:30:03.884Z,25.20
2022-08-08T10:32:53.068Z,24.90
2022-08-08T10:36:08.258Z,25.10
2022-08-08T10:38:44.065Z,24.90
2022-08-08T10:41:35.313Z,24.70
2022-08-08T10:44:41.830Z,24.90
2022-08-08T10:47:30.634Z,24.80
2022-08-08T10:50:37.713Z,24.90
2022-08-08T10:53:56.269Z,25.10
2022-08-08T10:56:43.306Z,25.00
2022-08-08T10:59:31.035Z,24.80
2022-08-08T11:02:27.064Z,24.80
2022-08-08T11:05:17.629Z,24.90
2022-08-08T11:08:30.837Z,24.80
2022-08-08T11:11:32.631Z,24.80
2022-08-08T11:14:25.311Z,24.80
2022-08-08T11:17:14.974Z,24.70
2022-08-08T11:20:12.519Z,24.90
2022-08-08T11:23:05.535Z,24.80
2022-08-08T11:25:58.384Z,24.70
2022-08-08T11:28:45.774Z,24.80
2022-08-08T11:32:02.481Z,24.70
2022-08-08T11:35:27.352Z,25.00
2022-08-08T11:38:39.189Z,24.80
2022-08-08T11:41:08.732Z,24.90
2022-08-08T11:43:57.638Z,25.20
2022-08-08T11:46:44.032Z,25.20
2022-08-08T11:49:30.219Z,25.20
2022-08-08T11:52:18.223Z,25.00
2022-08-08T11:55:20.201Z,24.80
2022-08-08T11:58:14.660Z,24.80
2022-08-08T12:01:12.282Z,24.70
2022-08-08T12:04:04.072Z,24.70
2022-08-08T12:07:03.526Z,24.40
2022-08-08T12:09:57.019Z,24.40
2022-08-08T12:12:48.916Z,24.30
2022-08-08T12:15:49.068Z,24.20
2022-08-08T12:18:49.839Z,24.40
2022-08-08T12:22:00.471Z,24.20
2022-08-08T12:24:53.707Z,24.30
2022-08-08T12:27:45.334Z,24.20
2022-08-08T12:30:31.853Z,24.40
2022-08-08T12:33:19.670Z,24.30
2022-08-08T12:36:13.743Z,24.10
2022-08-08T12:39:00.114Z,24.00
2022-08-08T12:42:01.866Z,24.00
2022-08-08T12:45:01.366Z,24.00
2022-08-08T12:48:04.257Z,24.20
2022-08-08T12:50:58.461Z,24.00
2022-08-08T12:53:59.449Z,24.30
2022-08-08T12:56:45.397Z,24.30
2022-08-08T12:59:44.602Z,24.10
2022-08-08T13:02:51.526Z,24.00
2022-08-08T13:06:03.170Z,24.20
2022-08-08T13:08:53.676Z,24.10
2022-08-08T13:12:27.051Z,24.10
2022-08-08T13:14:54.828Z,24.30
2022-08-08T13:18:08.335Z,24.00
2022-08-08T13:20:48.859Z,24.00
2022-08-08T13:23:41.752Z,24.00
2022-08-08T13:26:33.294Z,24.00
2022-08-08T13:29:19.571Z,24.30
2022-08-08T13:32:07.202Z,24.20
2022-08-08T13:34:59.007Z,24.20
2022-08-08T13:38:05.571Z,24.00
2022-08-08T13:40:51.383Z,23.90
2022-08-08T13:43:37.342Z,23.80
2022-08-08T13:46:28.491Z,24.10
2022-08-08T13:50:36.295Z,23.80
2022-08-08T13:52:37.824Z,23.90
2022-08-08T13:55:29.421Z,23.90
2022-08-08T13:58:22.385Z,23.90
2022-08-08T14:01:23.102Z,24.10
2022-08-08T14:04:20.085Z,24.10
2022-08-08T14:07:08.020Z,24.10
2022-08-08T14:10:04.240Z,24.30
2022-08-08T14:12:55.636Z,24.30
2022-08-08T14:15:46.274Z,24.40
2022-08-08T14:18:53.687Z,24.40
2022-08-08T14:21:48.996Z,24.60
2022-08-08T14:24:38.283Z,24.40
2022-08-08T14:27:33.497Z,24.70
2022-08-08T14:30:19.720Z,24.70
2022-08-08T14:33:12.759Z,24.60
2022-08-08T14:36:02.369Z,24.50
2022-08-08T14:38:52.826Z,24.60
2022-08-08T14:41:54.726Z,24.40
2022-08-08T14:44:40.685Z,24.60
2022-08-08T14:47:30.362Z,24.30
2022-08-08T14:50:38.738Z,24.20
2022-08-08T14:53:37.137Z,24.20
2022-08-08T14:56:25.599Z,24.30
2022-08-08T14:59:22.377Z,24.00
2022-08-08T15:02:25.320Z,24.20
2022-08-08T15:05:12.803Z,24.10
2022-08-08T15:08:00.927Z,24.10
2022-08-08T15:10:46.590Z,24.30
2022-08-08T15:13:41.012Z,24.20
2022-08-08T15:16:41.081Z,24.20
2022-08-08T15:19:28.909Z,24.50
2022-08-08T15:22:21.667Z,24.30
2022-08-08T15:25:17.888Z,24.20
2022-08-08T15:28:33.925Z,24.10
2022-08-08T15:31:55.778Z,24.10
2022-08-08T15:34:32.112Z,24.10
2022-08-08T15:37:17.610Z,24.00
2022-08-08T15:40:05.646Z,23.90
2022-08-08T15:42:56.860Z,23.60
2022-08-08T15:45:45.390Z,23.70
2022-08-08T15:48:34.446Z,23.50
2022-08-08T15:51:22.956Z,23.60
2022-08-08T15:54:38.470Z,23.50
2022-08-08T15:57:25.492Z,23.30
2022-08-08T16:00:26.094Z,23.30
2022-08-08T16:03:13.249Z,23.40
2022-08-08T16:06:01.794Z,23.50
2022-08-08T16:13:03.182Z,23.50
2022-08-08T16:13:09.903Z,23.40
2022-08-08T16:15:03.413Z,23.70
2022-08-08T16:18:06.642Z,23.70
2022-08-08T16:21:00.214Z,24.00
2022-08-08T16:23:46.406Z,23.90
2022-08-08T16:26:36.157Z,23.80
2022-08-08T16:29:23.929Z,24.10
2022-08-08T16:32:31.993Z,23.80
2022-08-08T16:35:18.899Z,23.70
2022-08-08T16:38:16.233Z,23.60
2022-08-08T16:41:02.181Z,23.60
2022-08-08T16:43:50.638Z,23.40
2022-08-08T16:46:46.046Z,23.60
2022-08-08T16:49:38.324Z,23.60
2022-08-08T16:55:03.625Z,23.50
2022-08-08T16:55:53.285Z,23.40
2022-08-08T16:58:36.705Z,23.10
2022-08-08T17:01:22.974Z,23.10
2022-08-08T17:04:09.438Z,23.30
2022-08-08T17:06:58.897Z,23.50
2022-08-08T17:09:45.909Z,23.40
2022-08-08T17:12:37.921Z,23.40
2022-08-08T17:15:23.506Z,23.60
2022-08-08T17:18:13.354Z,23.50
2022-08-08T17:21:01.661Z,23.80
2022-08-08T17:24:00.375Z,23.60
2022-08-08T17:26:48.214Z,23.60
2022-08-08T17:29:36.211Z,23.80
2022-08-08T17:32:28.949Z,23.80
2022-08-08T17:35:55.764Z,23.60
2022-08-08T17:38:24.880Z,23.10
2022-08-08T17:41:16.357Z,23.10
2022-08-08T17:44:10.932Z,23.00
2022-08-08T17:46:58.496Z,22.80
2022-08-08T17:49:43.819Z,22.60
2022-08-08T17:52:30.110Z,22.50
2022-08-08T17:56:05.300Z,22.60
2022-08-08T17:58:22.528Z,22.50
2022-08-08T18:01:13.074Z,22.40
2022-08-08T18:04:28.988Z,22.40
2022-08-08T18:08:03.574Z,22.00
2022-08-08T18:10:31.579Z,22.10
2022-08-08T18:13:17.980Z,21.80
2022-08-08T18:16:04.389Z,21.70
2022-08-08T18:18:56.632Z,21.70
2022-08-08T18:21:59.292Z,21.60
2022-08-08T18:24:48.644Z,21.70
2022-08-08T18:27:38.143Z,21.50
2022-08-08T18:30:24.296Z,21.40
2022-08-08T18:33:36.933Z,21.40
2022-08-08T18:36:23.422Z,21.20
2022-08-08T18:39:10.470Z,21.10
2022-08-08T18:42:04.144Z,21.10
2022-08-08T18:44:55.066Z,20.80
2022-08-08T18:47:44.775Z,20.80
2022-08-08T18:50:33.260Z,20.70
2022-08-08T18:53:25.226Z,20.80
2022-08-08T18:56:33.682Z,20.50
2022-08-08T18:59:20.911Z,20.70
2022-08-08T19:02:27.876Z,20.50
2022-08-08T19:05:15.137Z,20.30
2022-08-08T19:08:09.377Z,20.40
2022-08-08T19:10:55.629Z,20.40
2022-08-08T19:13:52.917Z,20.10
2022-08-08T19:16:45.432Z,19.90
2022-08-08T19:19:32.648Z,20.00
2022-08-08T19:22:21.790Z,19.90
2022-08-08T19:26:01.385Z,19.90
2022-08-08T19:28:19.413Z,19.70
2022-08-08T19:31:08.893Z,19.60
2022-08-08T19:34:29.533Z,19.60
2022-08-08T19:37:00.780Z,19.40
2022-08-08T19:39:46.309Z,19.40
2022-08-08T19:42:36.763Z,19.20
2022-08-08T19:45:58.204Z,19.10
2022-08-08T19:48:31.227Z,19.10
2022-08-08T19:51:25.064Z,19.20
2022-08-08T19:54:20.202Z,19.20
2022-08-08T19:57:16.113Z,19.10
2022-08-08T20:00:03.608Z,18.90
2022-08-08T20:02:57.670Z,19.00
2022-08-08T20:06:13.538Z,18.70
2022-08-08T20:08:49.320Z,18.60
2022-08-08T20:11:43.020Z,18.70
2022-08-08T20:14:35.900Z,18.50
2022-08-08T20:17:40.078Z,18.60
2022-08-08T20:20:30.096Z,18.60
2022-08-08T20:23:19.070Z,18.40
2022-08-08T20:26:06.175Z,18.40
2022-08-08T20:28:54.554Z,18.50
2022-08-08T20:32:07.080Z,18.40
2022-08-08T20:34:48.113Z,18.40
2022-08-08T20:37:53.393Z,18.20
2022-08-08T20:40:43.091Z,18.20
2022-08-08T20:43:43.803Z,18.20
2022-08-08T20:46:34.192Z,18.10
2022-08-08T20:49:23.151Z,17.90
2022-08-08T20:52:17.972Z,18.00
2022-08-08T20:55:22.450Z,17.90
2022-08-08T20:58:13.908Z,17.90
2022-08-08T21:01:10.844Z,17.80
2022-08-08T21:04:06.713Z,17.80
2022-08-08T21:06:54.084Z,17.50
2022-08-08T21:10:01.584Z,17.60
2022-08-08T21:12:53.080Z,17.40
2022-08-08T21:16:05.588Z,17.50
2022-08-08T21:18:45.912Z,17.30
2022-08-08T21:21:41.263Z,17.30
2022-08-08T21:24:30.968Z,17.30
2022-08-08T21:28:06.274Z,17.10
2022-08-08T21:30:24.742Z,17.10
2022-08-08T21:33:11.020Z,17.20
2022-08-08T21:36:17.526Z,17.10
2022-08-08T21:39:06.280Z,17.20
2022-08-08T21:41:59.079Z,17.10
2022-08-08T21:44:58.523Z,17.00
2022-08-08T21:48:00.658Z,16.80
2022-08-08T21:50:50.458Z,16.90
2022-08-08T21:54:34.544Z,16.80
2022-08-08T21:56:46.309Z,16.80
2022-08-08T22:00:01.937Z,16.80
2022-08-08T22:02:37.802Z,16.60
2022-08-08T22:05:23.561Z,16.50
2022-08-08T22:08:09.194Z,16.50
2022-08-08T22:10:55.141Z,16.60
2022-08-08T22:13:51.278Z,16.40
2022-08-08T22:16:37.688Z,16.60
2022-08-08T22:19:24.047Z,16.30
2022-08-08T22:22:13.147Z,16.50
2022-08-08T22:24:58.834Z,16.50
2022-08-08T22:28:03.639Z,16.50
2022-08-08T22:30:50.932Z,16.50
2022-08-08T22:34:13.509Z,16.40
2022-08-08T22:36:43.921Z,16.30
2022-08-08T22:39:45.791Z,16.30
2022-08-08T22:42:36.447Z,16.30
2022-08-08T22:45:21.880Z,16.10
2022-08-08T22:48:07.756Z,16.10
2022-08-08T22:50:53.911Z,16.30
2022-08-08T22:54:34.179Z,16.10
2022-08-08T22:56:47.540Z,16.10
2022-08-08T22:59:58.986Z,16.00
2022-08-08T23:02:41.405Z,15.90
2022-08-08T23:05:30.803Z,16.00
2022-08-08T23:08:35.479Z,15.90
2022-08-08T23:11:21.644Z,15.70
2022-08-08T23:14:07.340Z,15.80
2022-08-08T23:16:59.561Z,15.80
2022-08-08T23:19:45.436Z,15.70
2022-08-08T23:22:34.283Z,15.70
2022-08-08T23:25:20.335Z,15.60
2022-08-08T23:28:07.751Z,15.50
2022-08-08T23:30:53.777Z,15.50
2022-08-08T23:34:18.599Z,15.50
2022-08-08T23:36:46.526Z,15.50
2022-08-08T23:39:41.796Z,15.40
2022-08-08T23:42:35.250Z,15.30
2022-08-08T23:49:00.273Z,15.30
2022-08-08T23:49:05.805Z,15.30
2022-08-08T23:52:03.735Z,15.30
2022-08-08T23:54:53.132Z,15.10
2022-08-08T23:57:51.924Z,15.20
